DW9227 Weather Reports


Display with metric or nautical units.
time (UTC)temp
F
wind
direction
speed
MPH
gust
MPH
rain 1hr
in
rain 24hr
in
rain mn
in
humidity
%
barometer
mb
20240622103040 81 130 0.0 3.0 0.00 0.60 0.00 48 1011.2
20240622101539 81 144 0.0 3.0 0.00 0.60 0.00 46 1011.2
20240622100035 80 209 0.0 0.0 0.00 0.60 0.00 49 1011.4
20240622094531 79 209 0.0 3.0 0.00 0.61 0.00 50 1011.4
20240622093027 77 290 0.0 5.0 0.00 0.61 0.00 48 1011.4
20240622091525 77 293 0.0 9.0 0.00 0.61 0.00 47 1011.6
20240622090021 76 289 0.0 7.0 0.00 0.61 0.00 49 1011.8
20240622084519 75 301 0.0 10.0 0.00 0.69 0.00 51 1012.0
20240622083018 75 290 1.0 9.0 0.00 0.69 0.00 49 1012.1
20240622081514 73 284 1.0 9.0 0.00 0.69 0.00 52 1012.3
20240622080010 73 292 0.0 5.0 0.00 0.69 0.00 52 1012.6
20240622074507 72 293 1.0 7.0 0.00 0.71 0.00 53 1012.9
20240622073002 71 283 4.0 14.0 0.00 0.71 0.00 54 1013.2
20240622071617 70 303 0.0 8.0 0.00 0.71 0.00 58 1013.3
20240622070100 70 298 0.0 12.0 0.00 0.71 0.00 58 1013.5
20240622064554 69 288 2.0 11.0 0.00 1.00 0.00 58 1013.6
20240622063056 69 329 0.0 14.0 0.00 1.00 0.00 57 1013.7
20240622061559 66 324 1.0 11.0 0.00 1.00 0.00 62 1013.9
20240622060049 65 294 3.0 11.0 0.00 1.00 0.00 66 1013.8
20240622054558 65 294 3.0 8.0 0.00 1.02 0.00 64 1013.7
20240622053058 64 306 1.0 10.0 0.00 1.02 0.00 67 1013.9
20240622051549 63 292 0.0 11.0 0.00 1.02 0.00 68 1014.1
20240622050042 63 293 1.0 11.0 0.00 1.02 0.00 69 1014.0
20240622044540 64 302 0.0 8.0 0.00 1.07 0.00 67 1014.1
20240622043039 64 312 1.0 9.0 0.00 1.07 0.00 66 1014.1
20240622041538 64 296 2.0 12.0 0.00 1.07 0.00 67 1014.2
20240622040039 64 289 2.0 7.0 0.00 1.07 0.00 66 1014.2
20240622034537 65 291 1.0 10.0 0.00 1.08 0.00 65 1014.2
20240622033038 65 284 2.0 9.0 0.00 1.08 0.00 64 1014.2
20240622031545 65 295 3.0 13.0 0.00 1.08 0.00 65 1014.1
20240622030041 64 312 2.0 9.0 0.00 1.08 0.00 68 1014.2
20240622024532 65 297 5.0 11.0 0.00 1.09 0.00 64 1014.4
20240622023031 65 296 2.0 11.0 0.00 1.09 0.00 67 1014.2
20240622021529 65 292 0.0 11.0 0.00 1.09 0.00 68 1014.3
20240622020043 65 294 2.0 13.0 0.00 1.09 0.00 68 1014.4
20240622014525 65 303 2.0 10.0 0.00 1.09 0.00 67 1014.5
20240622013025 65 294 2.0 12.0 0.00 1.09 0.00 70 1014.6
20240622011524 65 294 1.0 9.0 0.00 1.09 0.00 69 1014.7
20240622010020 66 300 3.0 11.0 0.00 1.09 0.00 67 1014.8
20240622004518 66 275 5.0 15.0 0.00 1.09 0.00 67 1014.8
20240622003017 66 310 3.0 11.0 0.00 1.09 0.00 69 1015.0
20240622001531 65 315 3.0 13.0 0.00 1.09 0.00 71 1015.2
20240622000014 66 311 4.0 15.0 0.00 1.09 0.00 69 1014.9
20240621234523 66 296 3.0 12.0 0.00 1.09 0.00 67 1015.1
20240621233010 66 281 0.0 10.0 0.00 1.09 0.00 71 1015.2
20240621231530 67 299 3.0 13.0 0.00 1.09 0.00 69 1015.0
20240621230007 66 300 1.0 10.0 0.00 1.09 0.00 71 1015.5
20240621224506 67 298 2.0 13.0 0.00 1.09 0.00 71 1015.5
20240621223003 67 315 2.0 8.0 0.00 1.09 0.00 70 1015.5
20240621221601 67 296 3.0 19.0 0.00 1.09 0.00 69 1015.4
20240621220057 67 278 4.0 13.0 0.00 1.09 0.00 68 1015.2
20240621214558 67 290 1.0 14.0 0.00 1.09 1.09 69 1015.1
20240621213057 67 319 3.0 11.0 0.00 1.09 1.09 71 1015.2
20240621211556 67 311 0.0 12.0 0.00 1.09 1.09 70 1015.2
20240621210103 68 313 2.0 14.0 0.00 1.09 1.09 69 1015.2
20240621204554 67 305 4.0 10.0 0.00 1.09 1.09 70 1015.2
20240621203054 67 302 4.0 11.0 0.00 1.09 1.09 69 1015.1
20240621201553 67 294 3.0 12.0 0.00 1.09 1.09 70 1015.1
20240621200052 67 306 1.0 10.0 0.00 1.09 1.09 70 1015.1
20240621194554 68 287 3.0 10.0 0.00 1.09 1.09 68 1014.9
20240621193051 67 288 5.0 14.0 0.00 1.09 1.09 67 1014.8
20240621191550 67 273 0.0 8.0 0.00 1.09 1.09 70 1014.4
20240621190052 68 288 1.0 14.0 0.00 1.09 1.09 68 1014.2
20240621184550 67 279 2.0 11.0 0.00 1.09 1.09 68 1013.9
20240621183059 67 265 2.0 17.0 0.00 1.09 1.09 71 1014.3
20240621181547 67 282 3.0 10.0 0.00 1.09 1.09 73 1013.9
20240621180047 67 321 5.0 13.0 0.00 1.09 1.09 72 1014.1
20240621174546 67 301 1.0 8.0 0.00 1.09 1.09 74 1014.1
20240621173049 67 331 6.0 12.0 0.00 1.09 1.09 71 1014.2
20240621171545 67 317 0.0 4.0 0.00 1.09 1.09 75 1014.2
20240621170047 67 347 1.0 8.0 0.00 1.09 1.09 75 1014.6
20240621164547 68 293 1.0 12.0 0.00 1.09 1.09 72 1013.9
20240621163041 67 309 1.0 10.0 0.00 1.09 1.09 75 1014.8
20240621161546 67 323 0.0 9.0 0.00 1.09 1.09 77 1014.9
20240621160043 66 341 4.0 12.0 0.02 1.09 1.09 77 1015.4
20240621154546 66 304 3.0 12.0 0.03 1.09 1.09 81 1015.7
20240621153055 65 313 3.0 11.0 0.49 1.09 1.09 88 1016.1
20240621151536 66 298 1.0 4.0 0.50 1.09 1.08 93 1016.1
20240621150035 64 327 0.0 6.0 0.49 1.08 1.07 92 1016.0
20240621144541 67 157 0.0 7.0 0.47 1.06 1.06 87 1015.0
20240621143029 69 286 4.0 10.0 0.02 0.61 0.60 90 1014.3
20240621141538 70 72 0.0 0.0 0.00 0.59 0.57 92 1013.2
20240621140043 70 72 0.0 0.0 0.08 0.59 0.57 92 1013.7
20240621134524 71 72 0.0 0.0 0.09 0.60 0.57 92 1014.1
20240621133021 71 72 0.0 0.0 0.09 0.60 0.57 90 1014.4
20240621131521 71 72 0.0 0.0 0.09 0.60 0.57 88 1014.8
20240621130018 72 72 0.0 0.0 0.01 0.51 0.50 86 1015.1
20240621124521 72 82 0.0 7.0 0.00 0.50 0.49 84 1015.2
20240621123016 72 67 0.0 1.0 0.00 0.50 0.49 84 1015.3
20240621121515 72 68 0.0 6.0 0.00 0.50 0.49 83 1015.5
20240621120018 73 142 1.0 9.0 0.00 0.50 0.49 83 1015.5
20240621114511 73 232 0.0 2.0 0.00 0.50 0.49 86 1015.5
20240621113007 72 235 0.0 0.0 0.00 0.50 0.49 87 1015.6
20240621111506 71 242 0.0 2.0 0.00 0.50 0.49 89 1016.1
20240621110005 70 250 0.0 0.0 0.00 0.50 0.49 90 1015.8
20240621104604 70 250 0.0 4.0 0.00 0.50 0.49 91 1016.2